Map

Track Data

SID SEASON NUMBER BASIN SUBBASIN NAME ISO_TIME NATURE LAT LON WMO_WIND WMO_PRES WMO_AGENCY TRACK_TYPE DIST2LAND LANDFALL IFLAG USA_AGENCY USA_ATCF_ID USA_LAT USA_LON USA_RECORD USA_STATUS USA_WIND USA_PRES USA_SSHS USA_R34_NE USA_R34_SE USA_R34_SW USA_R34_NW USA_R50_NE USA_R50_SE USA_R50_SW USA_R50_NW USA_R64_NE USA_R64_SE USA_R64_SW USA_R64_NW USA_POCI USA_ROCI USA_RMW USA_EYE TOKYO_LAT TOKYO_LON TOKYO_GRADE TOKYO_WIND TOKYO_PRES TOKYO_R50_DIR TOKYO_R50_LONG TOKYO_R50_SHORT TOKYO_R30_DIR TOKYO_R30_LONG TOKYO_R30_SHORT TOKYO_LAND CMA_LAT CMA_LON CMA_CAT CMA_WIND CMA_PRES HKO_LAT HKO_LON HKO_CAT HKO_WIND HKO_PRES NEWDELHI_LAT NEWDELHI_LON NEWDELHI_GRADE NEWDELHI_WIND NEWDELHI_PRES NEWDELHI_CI NEWDELHI_DP NEWDELHI_POCI REUNION_LAT REUNION_LON REUNION_TYPE REUNION_WIND REUNION_PRES REUNION_TNUM REUNION_CI REUNION_RMW REUNION_R34_NE REUNION_R34_SE REUNION_R34_SW REUNION_R34_NW REUNION_R50_NE REUNION_R50_SE REUNION_R50_SW REUNION_R50_NW REUNION_R64_NE REUNION_R64_SE REUNION_R64_SW REUNION_R64_NW BOM_LAT BOM_LON BOM_TYPE BOM_WIND BOM_PRES BOM_TNUM BOM_CI BOM_RMW BOM_R34_NE BOM_R34_SE BOM_R34_SW BOM_R34_NW BOM_R50_NE BOM_R50_SE BOM_R50_SW BOM_R50_NW BOM_R64_NE BOM_R64_SE BOM_R64_SW BOM_R64_NW BOM_ROCI BOM_POCI BOM_EYE BOM_POS_METHOD BOM_PRES_METHOD NADI_LAT NADI_LON NADI_CAT NADI_WIND NADI_PRES WELLINGTON_LAT WELLINGTON_LON WELLINGTON_WIND WELLINGTON_PRES DS824_LAT DS824_LON DS824_STAGE DS824_WIND DS824_PRES TD9636_LAT TD9636_LON TD9636_STAGE TD9636_WIND TD9636_PRES TD9635_LAT TD9635_LON TD9635_WIND TD9635_PRES TD9635_ROCI NEUMANN_LAT NEUMANN_LON NEUMANN_CLASS NEUMANN_WIND NEUMANN_PRES MLC_LAT MLC_LON MLC_CLASS MLC_WIND MLC_PRES USA_GUST BOM_GUST BOM_GUST_PER REUNION_GUST REUNION_GUST_PER USA_SEAHGT USA_SEARAD_NE USA_SEARAD_SE USA_SEARAD_SW USA_SEARAD_NW STORM_SPEED STORM_DIR
1998001S09195 1998 1 SP MM RON 1998-01-01 06:00:00 NR -9.00000 -165.500 25 999 nadi main 900 900 ________O_____ -1 -9.00000 -165.500 25 999 -9.00000 -165.500 25 999 6 59
1998001S09195 1998 1 SP MM RON 1998-01-01 09:00:00 NR -8.83950 -165.228 main 940 891 _______IP_____ -1 -8.83950 -165.228 27 998 -8.83950 -165.228 27 998 1 285
1998001S09195 1998 1 SP MM RON 1998-01-01 12:00:00 TS -8.97500 -165.600 30 998 nadi main 891 832 O_______O___O_ jtwc_sh SH101998 -9.50000 -166.200 25 -1 -8.80000 -165.400 30 998 -8.80000 -165.400 30 998 -9.50000 -166.200 TC 25 11 253
1998001S09195 1998 1 SP MM RON 1998-01-01 15:00:00 TS -9.15897 -166.286 main 817 752 P______IP___P_ SH101998 -9.56494 -166.350 25 -1 -8.95599 -166.255 30 997 -8.95599 -166.255 30 997 -9.56494 -166.350 TC 25 14 253
1998001S09195 1998 1 SP MM RON 1998-01-01 18:00:00 TS -9.37143 -166.943 30 997 nadi main 752 711 O_______O___O_ jtwc_sh SH101998 -9.60000 -166.600 25 -1 -9.20000 -167.200 30 997 -9.20000 -167.200 30 997 -9.60000 -166.600 TC 25 10 251
1998001S09195 1998 1 SP MM RON 1998-01-01 21:00:00 TS -9.49981 -167.276 main 711 679 P______IP___P_ SH101998 -9.59256 -167.013 27 -1 -9.40707 -167.540 35 993 -9.40707 -167.540 35 993 -9.59256 -167.013 TC 27 7 251
1998001S09195 1998 1 SP MM RON 1998-01-02 00:00:00 TS -9.60000 -167.600 40 990 nadi main 679 648 O_______O___O_ jtwc_sh SH101998 -9.60000 -167.500 30 -1 -9.60000 -167.700 40 990 -9.60000 -167.700 40 990 -9.60000 -167.500 TC 30 7 252
1998001S09195 1998 1 SP MM RON 1998-01-02 03:00:00 TS -9.71743 -167.960 main 640 609 P______IP___P_ SH101998 -9.66994 -167.950 30 -1 -9.76492 -167.970 42 988 -9.76492 -167.970 42 988 -9.66994 -167.950 TC 30 8 251
1998001S09195 1998 1 SP MM RON 1998-01-02 06:00:00 TS -9.85000 -168.350 45 987 nadi main 601 554 O_______O___O_ jtwc_sh SH101998 -9.80000 -168.400 30 -1 -9.90000 -168.300 45 987 -9.90000 -168.300 45 987 -9.80000 -168.400 TC 30 9 251
1998001S09195 1998 1 SP MM RON 1998-01-02 09:00:00 TS -9.99623 -168.789 main 554 516 P______IP___P_ SH101998 -9.99244 -168.850 30 -1 -10.0000 -168.728 47 986 -10.0000 -168.728 47 986 -9.99244 -168.850 TC 30 9 251
1998001S09195 1998 1 SP MM RON 1998-01-02 12:00:00 TS -10.1500 -169.250 50 985 nadi main 516 463 O_______O___O_ jtwc_sh SH101998 -10.2000 -169.300 30 -1 -10.1000 -169.200 50 985 -10.1000 -169.200 50 985 -10.2000 -169.300 TC 30 10 252
1998001S09195 1998 1 SP MM RON 1998-01-02 15:00:00 TS -10.2962 -169.708 main 463 428 P______IP___P_ SH101998 -10.3575 -169.758 32 -1 -10.2350 -169.658 52 982 -10.2350 -169.658 52 982 -10.3575 -169.758 TC 32 9 251
1998001S09195 1998 1 SP MM RON 1998-01-02 18:00:00 TS -10.4500 -170.150 55 980 nadi main 428 384 O_______O___O_ jtwc_sh SH101998 -10.5000 -170.200 35 0 -10.4000 -170.100 55 980 -10.4000 -170.100 55 980 -10.5000 -170.200 TC 35 9 249
1998001S09195 1998 1 SP MM RON 1998-01-02 21:00:00 TS -10.6212 -170.569 main 379 343 P______IP___P_ SH101998 -10.6500 -170.623 37 0 -10.5924 -170.515 57 978 -10.5924 -170.515 57 978 -10.6500 -170.623 TC 37 9 246
1998001S09195 1998 1 SP MM RON 1998-01-03 00:00:00 TS -10.8000 -170.950 60 977 nadi main 343 304 O_______O___O_ jtwc_sh SH101998 -10.8000 -171.000 40 0 -10.8000 -170.900 60 977 -10.8000 -170.900 60 977 -10.8000 -171.000 TC 40 8 243
1998001S09195 1998 1 SP MM RON 1998-01-03 03:00:00 TS -10.9862 -171.286 main 304 282 P______IP___P_ SH101998 -10.9649 -171.315 45 0 -11.0074 -171.258 60 976 -11.0074 -171.258 60 976 -10.9649 -171.315 TC 45 7 241
1998001S09195 1998 1 SP MM RON 1998-01-03 06:00:00 TS -11.1500 -171.600 60 975 nadi main 282 252 O_______O___O_ jtwc_sh SH101998 -11.1000 -171.600 50 0 -11.2000 -171.600 60 975 -11.2000 -171.600 60 975 -11.1000 -171.600 TC 50 7 245
1998001S09195 1998 1 SP MM RON 1998-01-03 09:00:00 TS -11.2800 -171.940 main 252 247 P______IP___P_ SH101998 -11.1725 -171.915 57 0 -11.3875 -171.965 62 972 -11.3875 -171.965 62 972 -11.1725 -171.915 TC 57 7 253
1998001S09195 1998 1 SP MM RON 1998-01-03 12:00:00 TS -11.3500 -172.250 65 970 nadi main 247 235 O_______O___O_ jtwc_sh SH101998 -11.2000 -172.200 65 1 -11.5000 -172.300 65 970 -11.5000 -172.300 65 970 -11.2000 -172.200 TC 65 6 263
1998001S09195 1998 1 SP MM RON 1998-01-03 15:00:00 TS -11.3437 -172.505 main 246 246 P______IP___P_ SH101998 -11.2075 -172.423 70 1 -11.4800 -172.588 67 967 -11.4800 -172.588 67 967 -11.2075 -172.423 TC 70 4 276
1998001S09195 1998 1 SP MM RON 1998-01-03 18:00:00 TS -11.3000 -172.700 70 965 nadi main 246 246 O_______O___O_ jtwc_sh SH101998 -11.2000 -172.600 75 1 -11.4000 -172.800 70 965 -11.4000 -172.800 70 965 -11.2000 -172.600 TC 75 3 285
1998001S09195 1998 1 SP MM RON 1998-01-03 21:00:00 TS -11.2600 -172.833 main 246 246 P______IP___P_ SH101998 -11.1850 -172.750 80 1 -11.3350 -172.915 72 962 -11.3350 -172.915 72 962 -11.1850 -172.750 TC 80 3 282
1998001S09195 1998 1 SP MM RON 1998-01-04 00:00:00 TS -11.2500 -172.950 75 960 nadi main 258 247 O_______O___O_ jtwc_sh SH101998 -11.2000 -172.900 85 2 -11.3000 -173.000 75 960 -11.3000 -173.000 75 960 -11.2000 -172.900 TC 85 3 264
1998001S09195 1998 1 SP MM RON 1998-01-04 03:00:00 TS -11.2912 -173.114 main 248 239 P______IP___P_ SH101998 -11.2775 -173.092 90 2 -11.3050 -173.135 77 957 -11.3050 -173.135 77 957 -11.2775 -173.092 TC 90 4 246
1998001S09195 1998 1 SP MM RON 1998-01-04 06:00:00 TS -11.4000 -173.300 80 955 nadi main 241 222 O_______O___O_ jtwc_sh SH101998 -11.4000 -173.300 95 2 -11.4000 -173.300 80 955 -11.4000 -173.300 80 955 -11.4000 -173.300 TC 95 5 231
1998001S09195 1998 1 SP MM RON 1998-01-04 09:00:00 TS -11.5887 -173.481 main 225 209 P______IP___P_ SH101998 -11.5424 -173.485 102 3 -11.6350 -173.477 82 950 -11.6350 -173.477 82 950 -11.5424 -173.485 TC 102 6 224
1998001S09195 1998 1 SP MM RON 1998-01-04 12:00:00 TS -11.8000 -173.700 85 945 nadi main 213 209 O_______O___O_ jtwc_sh SH101998 -11.7000 -173.700 110 3 -11.9000 -173.700 85 945 -11.9000 -173.700 85 945 -11.7000 -173.700 TC 110 6 233
1998001S09195 1998 1 SP MM RON 1998-01-04 15:00:00 TS -11.9650 -173.985 main 212 212 P______IP___P_ SH101998 -11.8500 -173.985 115 4 -12.0800 -173.985 92 935 -12.0800 -173.985 92 935 -11.8500 -173.985 TC 115 7 243
1998001S09195 1998 1 SP MM RON 1998-01-04 18:00:00 TS -12.1000 -174.300 100 925 nadi main 225 225 O_______O___O_ jtwc_sh SH101998 -12.0000 -174.300 120 4 -12.2000 -174.300 100 925 -12.2000 -174.300 100 925 -12.0000 -174.300 TC 120 7 249
1998001S09195 1998 1 SP MM RON 1998-01-04 21:00:00 TS -12.2075 -174.619 main 243 243 P______IP___P_ SH101998 -12.1575 -174.622 125 4 -12.2575 -174.615 107 920 -12.2575 -174.615 107 920 -12.1575 -174.622 TC 125 6 251
1998001S09195 1998 1 SP MM RON 1998-01-05 00:00:00 TS -12.3000 -174.900 115 915 nadi main 264 264 O_______O___O_ jtwc_sh SH101998 -12.3000 -174.900 130 4 -12.3000 -174.900 115 915 -12.3000 -174.900 115 915 -12.3000 -174.900 TC 130 5 249
1998001S09195 1998 1 SP MM RON 1998-01-05 03:00:00 TS -12.3887 -175.101 main 278 278 P______IP___P_ SH101998 -12.3924 -175.073 135 4 -12.3850 -175.130 120 907 -12.3850 -175.130 120 907 -12.3924 -175.073 TC 135 4 240
1998001S09195 1998 1 SP MM RON 1998-01-05 06:00:00 TS -12.5000 -175.250 125 900 nadi main 283 289 O_______O___O_ jtwc_sh SH101998 -12.5000 -175.200 140 5 -12.5000 -175.300 125 900 -12.5000 -175.300 125 900 -12.5000 -175.200 TC 140 4 227
1998001S09195 1998 1 SP MM RON 1998-01-05 09:00:00 TS -12.6487 -175.386 main 299 295 P______IP___P_ SH101998 -12.6775 -175.357 142 5 -12.6200 -175.415 125 900 -12.6200 -175.415 125 900 -12.6775 -175.357 TC 142 4 215
1998001S09195 1998 1 SP MM RON 1998-01-05 12:00:00 TS -12.8500 -175.500 125 900 nadi main 302 300 O_______O___O_ jtwc_sh SH101998 -12.9000 -175.500 145 5 -12.8000 -175.500 125 900 -12.8000 -175.500 125 900 -12.9000 -175.500 TC 145 5 205
1998001S09195 1998 1 SP MM RON 1998-01-05 15:00:00 TS -13.1137 -175.611 main 306 304 P______IP___P_ SH101998 -13.1425 -175.615 145 5 -13.0850 -175.607 125 900 -13.0850 -175.607 125 900 -13.1425 -175.615 TC 145 6 199
1998001S09195 1998 1 SP MM RON 1998-01-05 18:00:00 TS -13.4000 -175.700 125 900 nadi main 313 313 O_______O___O_ jtwc_sh SH101998 -13.4000 -175.700 145 5 -13.4000 -175.700 125 900 -13.4000 -175.700 125 900 -13.4000 -175.700 TC 145 6 196
1998001S09195 1998 1 SP MM RON 1998-01-05 21:00:00 TS -13.6500 -175.765 main 324 324 P______IP___P_ SH101998 -13.6500 -175.772 145 5 -13.6500 -175.758 125 900 -13.6500 -175.758 125 900 -13.6500 -175.772 TC 145 5 191
1998001S09195 1998 1 SP MM RON 1998-01-06 00:00:00 TS -13.9000 -175.800 125 900 nadi main 327 327 O_______O___O_ jtwc_sh SH101998 -13.9000 -175.800 145 5 -13.9000 -175.800 125 900 -13.9000 -175.800 125 900 -13.9000 -175.800 TC 145 5 187
1998001S09195 1998 1 SP MM RON 1998-01-06 03:00:00 TS -14.1712 -175.822 main 333 333 P______IP___P_ SH101998 -14.1425 -175.773 145 5 -14.2000 -175.872 125 900 -14.2000 -175.872 125 900 -14.1425 -175.773 TC 145 6 0
1998001S09195 1998 1 SP MM RON 1998-01-06 06:00:00 TS -14.4500 -175.800 125 900 nadi main 339 336 O_______O___O_ jtwc_sh SH101998 -14.4000 -175.700 145 5 -14.5000 -175.900 125 900 -14.5000 -175.900 125 900 -14.4000 -175.700 TC 145 6 170
1998001S09195 1998 1 SP MM RON 1998-01-06 09:00:00 TS -14.7212 -175.719 main 340 340 P______IP___P_ SH101998 -14.6850 -175.622 142 5 -14.7575 -175.815 125 900 -14.7575 -175.815 125 900 -14.6850 -175.622 TC 142 6 161
1998001S09195 1998 1 SP MM RON 1998-01-06 12:00:00 TS -15.0000 -175.600 125 900 nadi main 345 345 O_______O___O_ jtwc_sh SH101998 -15.0000 -175.500 140 5 -15.0000 -175.700 125 900 -15.0000 -175.700 125 900 -15.0000 -175.500 TC 140 6 161
1998001S09195 1998 1 SP MM RON 1998-01-06 15:00:00 TS -15.2812 -175.512 main 353 350 P______IP___P_ SH101998 -15.3350 -175.330 137 5 -15.2274 -175.695 125 900 -15.2274 -175.695 125 900 -15.3350 -175.330 TC 137 7 158
1998001S09195 1998 1 SP MM RON 1998-01-06 18:00:00 TS -15.6000 -175.350 125 900 nadi main 362 351 O_______O___O_ jtwc_sh SH101998 -15.7000 -175.100 135 4 -15.5000 -175.600 125 900 -15.5000 -175.600 125 900 -15.7000 -175.100 TC 135 8 147
1998001S09195 1998 1 SP MM RON 1998-01-06 21:00:00 TS -15.9888 -175.038 main 356 356 P______IP___P_ SH101998 -16.0925 -174.822 130 4 -15.8851 -175.253 120 907 -15.8851 -175.253 120 907 -16.0925 -174.822 TC 130 11 140
1998001S09195 1998 1 SP MM RON 1998-01-07 00:00:00 TS -16.4000 -174.650 115 915 nadi main 361 361 O_______O___O_ jtwc_sh SH101998 -16.5000 -174.500 125 4 -16.3000 -174.800 115 915 -16.3000 -174.800 115 915 -16.5000 -174.500 TC 125 11 137
1998001S09195 1998 1 SP MM RON 1998-01-07 03:00:00 TS -16.7637 -174.275 main 382 377 P______IP___P_ SH101998 -16.8925 -174.150 122 4 -16.6349 -174.400 112 916 -16.6349 -174.400 112 916 -16.8925 -174.150 TC 122 10 136
1998001S09195 1998 1 SP MM RON 1998-01-07 06:00:00 TS -17.1500 -173.900 110 918 nadi main 394 401 O_______O___O_ jtwc_sh SH101998 -17.3000 -173.800 120 4 -17.0000 -174.000 110 918 -17.0000 -174.000 110 918 -17.3000 -173.800 TC 120 11 139
1998001S09195 1998 1 SP MM RON 1998-01-07 09:00:00 TS -17.5837 -173.535 main 436 436 P______IP___P_ SH101998 -17.7199 -173.492 115 4 -17.4476 -173.577 107 920 -17.4476 -173.577 107 920 -17.7199 -173.492 TC 115 12 145
1998001S09195 1998 1 SP MM RON 1998-01-07 12:00:00 TS -18.1000 -173.200 105 922 nadi main 485 485 O_______O___O_ jtwc_sh SH101998 -18.2000 -173.200 110 3 -18.0000 -173.200 105 922 -18.0000 -173.200 105 922 -18.2000 -173.200 TC 110 13 153
1998001S09195 1998 1 SP MM RON 1998-01-07 15:00:00 TS -18.7049 -172.925 main 549 549 P______IP___P_ SH101998 -18.7549 -172.907 107 3 -18.6548 -172.942 100 926 -18.6548 -172.942 100 926 -18.7549 -172.907 TC 107 14 158
1998001S09195 1998 1 SP MM RON 1998-01-07 18:00:00 TS -19.4000 -172.650 95 930 nadi main 626 626 O_______O___O_ jtwc_sh SH101998 -19.4000 -172.600 105 3 -19.4000 -172.700 95 930 -19.4000 -172.700 95 930 -19.4000 -172.600 TC 105 15 159
1998001S09195 1998 1 SP MM RON 1998-01-07 21:00:00 TS -20.1448 -172.344 main 705 705 P______IP___P_ SH101998 -20.1049 -172.272 100 3 -20.1846 -172.417 90 937 -20.1846 -172.417 90 937 -20.1049 -172.272 TC 100 17 157
1998001S09195 1998 1 SP MM RON 1998-01-08 00:00:00 TS -20.9500 -171.950 85 945 nadi main 794 805 O_______O___O_ jtwc_sh SH101998 -20.9000 -171.900 95 2 -21.0000 -172.000 85 945 -21.0000 -172.000 85 945 -20.9000 -171.900 TC 95 18 150
1998001S09195 1998 1 SP MM RON 1998-01-08 03:00:00 TS -21.7406 -171.371 main 887 887 P______IP___P_ SH101998 -21.7402 -171.450 90 2 -21.7409 -171.293 82 950 -21.7409 -171.293 82 950 -21.7402 -171.450 TC 90 20 148
1998001S09195 1998 1 SP MM RON 1998-01-08 06:00:00 TS -22.6533 -170.813 80 955 nadi main 1006 1006 O_______O___O_ jtwc_sh SH101998 -22.7000 -171.000 85 2 -22.6000 -170.600 80 955 -22.6000 -170.600 80 955 -22.7000 -171.000 TC 85 22 158
1998001S09195 1998 1 SP MM RON 1998-01-08 09:00:00 TS -23.7652 -170.491 main 1132 1132 P______IP___P_ SH101998 -23.8197 -170.656 77 1 -23.6791 -170.303 75 960 -23.7193 -170.202 75 960 -23.8197 -170.656 TC 77 24 167
1998001S09195 1998 1 SP MM RON 1998-01-08 12:00:00 TS -25.0000 -170.200 70 965 nadi main 1270 1270 O_______O___O_ jtwc_sh SH101998 -25.0000 -170.300 70 1 -25.0000 -170.000 70 965 -25.0000 -170.000 70 965 -25.0000 -170.300 TC 70 25 165
1998001S09195 1998 1 SP MM RON 1998-01-08 15:00:00 TS -26.2001 -169.749 main 1411 1411 P______I____P_ SH101998 -26.1148 -169.844 60 0 -26.5417 -169.368 65 970 -26.1148 -169.844 TC 60 25 159
1998001S09195 1998 1 SP MM RON 1998-01-08 18:00:00 TS -27.3429 -169.186 main 1541 1541 O___________O_ jtwc_sh SH101998 -27.2000 -169.300 50 0 -28.2000 -168.500 60 975 -27.2000 -169.300 TC 50 23 155
1998001S09195 1998 1 SP MM RON 1998-01-08 21:00:00 TS -28.2582 -168.675 main 1577 1551 P___________P_ SH101998 -28.2582 -168.675 40 0 -28.2582 -168.675 TC 40 22 152
1998001S09195 1998 1 SP MM RON 1998-01-09 00:00:00 TS -29.3000 -168.000 main 1551 O___________O_ jtwc_sh SH101998 -29.3000 -168.000 30 -1 -29.3000 -168.000 TC 30 24 151

Digital Typhoon Data and Search

About IBTrACS Database

This database is a web-friendly format of International Best Track Archive for Climate Stewardship (IBTrACS), a global best track data archive curated by NOAA dating back to 1842.

Updated: 2021-12-01